createdAt,value
2018-07-07T00:00:39.480Z,102144.95
2018-07-07T00:03:08.066Z,102141.23
2018-07-07T00:05:36.614Z,102144.19
2018-07-07T00:08:05.114Z,102144.19
2018-07-07T00:10:33.592Z,102144.17
2018-07-07T00:13:02.084Z,102147.70
2018-07-07T00:15:30.593Z,102148.56
2018-07-07T00:17:59.024Z,102145.39
2018-07-07T00:20:27.507Z,102149.36
2018-07-07T00:23:17.822Z,102141.33
2018-07-07T00:25:46.262Z,102145.16
2018-07-07T00:28:14.811Z,102145.42
2018-07-07T00:30:43.345Z,102147.03
2018-07-07T00:33:11.829Z,102147.41
2018-07-07T00:35:40.369Z,102146.02
2018-07-07T00:38:16.501Z,102146.48
2018-07-07T00:40:45.106Z,102146.89
2018-07-07T00:43:13.657Z,102149.98
2018-07-07T00:45:42.239Z,102147.30
2018-07-07T00:48:10.773Z,102150.30
2018-07-07T00:50:39.320Z,102150.61
2018-07-07T00:53:07.892Z,102157.13
2018-07-07T00:55:36.464Z,102151.27
2018-07-07T00:58:05.093Z,102154.27
2018-07-07T01:00:52.944Z,102155.59
2018-07-07T01:03:22.285Z,102157.35
2018-07-07T01:05:50.950Z,102161.86
2018-07-07T01:08:19.660Z,102161.74
2018-07-07T01:10:48.098Z,102157.62
2018-07-07T01:13:21.326Z,102162.41
2018-07-07T01:15:49.790Z,102162.66
2018-07-07T01:18:18.812Z,102160.86
2018-07-07T01:20:47.292Z,102161.23
2018-07-07T01:23:15.885Z,102164.62
2018-07-07T01:25:44.313Z,102163.16
2018-07-07T01:31:26.789Z,102163.85
2018-07-07T01:33:55.255Z,102158.20
2018-07-07T01:36:23.791Z,102160.09
2018-07-07T01:38:52.326Z,102165.04
2018-07-07T01:41:20.833Z,102166.41
2018-07-07T01:43:49.626Z,102168.29
2018-07-07T01:46:18.056Z,102162.20
2018-07-07T01:48:46.705Z,102164.06
2018-07-07T01:51:15.185Z,102156.64
2018-07-07T01:53:43.839Z,102157.23
2018-07-07T01:56:12.357Z,102161.28
2018-07-07T01:58:40.860Z,102160.44
2018-07-07T02:01:09.302Z,102160.50
2018-07-07T02:03:37.872Z,102155.27
2018-07-07T02:06:06.467Z,102159.75
2018-07-07T02:08:34.938Z,102156.23
2018-07-07T02:11:03.422Z,102157.64
2018-07-07T02:13:31.878Z,102149.66
2018-07-07T02:16:00.475Z,102150.97
2018-07-07T02:18:29.007Z,102153.16
2018-07-07T02:20:57.547Z,102155.80
2018-07-07T02:23:25.956Z,102151.75
2018-07-07T02:25:54.501Z,102157.50
2018-07-07T02:28:22.972Z,102154.41
2018-07-07T02:31:00.281Z,102144.20
2018-07-07T02:33:28.669Z,102151.28
2018-07-07T02:35:57.144Z,102149.95
2018-07-07T02:38:25.647Z,102150.73
2018-07-07T02:40:54.212Z,102155.44
2018-07-07T02:43:22.702Z,102152.16
2018-07-07T02:45:51.156Z,102149.78
2018-07-07T02:48:19.659Z,102149.96
2018-07-07T02:50:48.116Z,102153.39
2018-07-07T02:53:16.717Z,102155.52
2018-07-07T02:55:52.602Z,102154.19
2018-07-07T02:58:21.161Z,102151.93
2018-07-07T03:01:01.361Z,102156.68
2018-07-07T03:03:29.891Z,102152.33
2018-07-07T03:05:58.396Z,102151.95
2018-07-07T03:08:26.856Z,102149.41
2018-07-07T03:10:55.348Z,102152.70
2018-07-07T03:13:23.920Z,102152.67
2018-07-07T03:15:52.414Z,102152.23
2018-07-07T03:18:20.893Z,102155.47
2018-07-07T03:20:49.357Z,102150.95
2018-07-07T03:23:17.961Z,102155.75
2018-07-07T03:25:46.638Z,102155.49
2018-07-07T03:28:15.105Z,102162.05
2018-07-07T03:30:43.608Z,102159.01
2018-07-07T03:33:12.127Z,102160.84
2018-07-07T03:35:40.661Z,102168.48
2018-07-07T03:38:12.986Z,102174.72
2018-07-07T03:40:41.532Z,102175.22
2018-07-07T03:43:10.107Z,102174.72
2018-07-07T03:45:38.639Z,102175.22
2018-07-07T03:48:07.165Z,102178.77
2018-07-07T03:50:35.661Z,102173.50
2018-07-07T03:53:22.689Z,102171.81
2018-07-07T03:55:51.286Z,102173.97
2018-07-07T03:58:19.737Z,102179.27
2018-07-07T04:00:48.336Z,102178.80
2018-07-07T04:03:16.848Z,102177.52
2018-07-07T04:05:45.412Z,102186.84
2018-07-07T04:08:14.378Z,102185.52
2018-07-07T04:10:43.102Z,102191.35
2018-07-07T04:13:11.777Z,102188.39
2018-07-07T04:15:40.350Z,102197.64
2018-07-07T04:18:08.846Z,102200.09
2018-07-07T04:20:37.309Z,102202.19
2018-07-07T04:23:06.058Z,102204.09
2018-07-07T04:25:34.506Z,102202.33
2018-07-07T04:28:02.924Z,102205.40
2018-07-07T04:30:31.464Z,102208.50
2018-07-07T04:32:59.973Z,102210.85
2018-07-07T04:35:28.531Z,102215.98
2018-07-07T04:38:05.006Z,102215.02
2018-07-07T04:40:33.541Z,102218.83
2018-07-07T04:43:23.249Z,102221.95
2018-07-07T04:46:01.898Z,102221.56
2018-07-07T04:48:30.445Z,102226.98
2018-07-07T04:51:01.058Z,102226.63
2018-07-07T04:53:29.533Z,102226.47
2018-07-07T04:55:58.005Z,102232.55
2018-07-07T04:58:26.519Z,102237.33
2018-07-07T05:00:54.982Z,102249.39
2018-07-07T05:03:23.474Z,102249.86
2018-07-07T05:05:51.985Z,102247.27
2018-07-07T05:08:20.559Z,102249.09
2018-07-07T05:14:15.016Z,102258.43
2018-07-07T05:16:43.541Z,102260.02
2018-07-07T05:19:16.668Z,102254.63
2018-07-07T05:21:45.211Z,102256.38
2018-07-07T05:24:14.522Z,102262.00
2018-07-07T05:26:43.005Z,102261.84
2018-07-07T05:29:45.979Z,102254.11
2018-07-07T05:32:14.394Z,102260.92
2018-07-07T05:34:42.947Z,102262.70
2018-07-07T05:37:11.504Z,102259.22
2018-07-07T05:39:40.165Z,102255.25
2018-07-07T05:42:08.728Z,102254.88
2018-07-07T05:44:37.280Z,102254.55
2018-07-07T05:47:05.868Z,102255.52
2018-07-07T05:49:34.277Z,102249.47
2018-07-07T05:52:02.845Z,102255.84
2018-07-07T05:54:31.423Z,102251.92
2018-07-07T05:56:59.849Z,102256.84
2018-07-07T05:59:28.828Z,102260.84
2018-07-07T06:01:57.584Z,102264.47
2018-07-07T06:04:26.174Z,102266.34
2018-07-07T06:06:55.007Z,102270.41
2018-07-07T06:09:23.556Z,102263.85
2018-07-07T06:11:52.192Z,102268.88
2018-07-07T06:14:20.725Z,102264.97
2018-07-07T06:16:49.202Z,102272.62
2018-07-07T06:19:17.644Z,102274.45
2018-07-07T06:21:46.102Z,102279.02
2018-07-07T06:24:14.845Z,102278.28
2018-07-07T06:26:43.544Z,102282.87
2018-07-07T06:29:12.015Z,102279.95
2018-07-07T06:31:40.582Z,102277.42
2018-07-07T06:34:09.092Z,102275.33
2018-07-07T06:36:37.697Z,102272.17
2018-07-07T06:39:06.711Z,102275.36
2018-07-07T06:41:35.253Z,102277.16
2018-07-07T06:44:03.988Z,102280.26
2018-07-07T06:46:32.513Z,102287.00
2018-07-07T06:49:01.019Z,102280.80
2018-07-07T06:51:29.460Z,102282.61
2018-07-07T06:53:58.112Z,102283.94
2018-07-07T06:56:26.640Z,102283.53
2018-07-07T06:58:55.064Z,102283.53
2018-07-07T07:01:23.792Z,102279.98
2018-07-07T07:03:52.326Z,102277.80
2018-07-07T07:06:20.899Z,102281.41
2018-07-07T07:08:49.401Z,102278.30
2018-07-07T07:11:17.876Z,102277.00
2018-07-07T07:13:46.316Z,102277.47
2018-07-07T07:16:14.756Z,102281.98
2018-07-07T07:18:43.332Z,102282.03
2018-07-07T07:21:11.867Z,102282.55
2018-07-07T07:23:40.338Z,102282.09
2018-07-07T07:26:08.892Z,102288.36
2018-07-07T07:28:37.395Z,102288.42
2018-07-07T07:31:05.932Z,102283.57
2018-07-07T07:33:34.769Z,102283.66
2018-07-07T07:36:07.184Z,102286.87
2018-07-07T07:38:35.723Z,102284.69
2018-07-07T07:41:04.278Z,102289.17
2018-07-07T07:43:32.831Z,102277.64
2018-07-07T07:46:01.297Z,102280.35
2018-07-07T07:48:30.123Z,102281.27
2018-07-07T07:50:58.758Z,102286.63
2018-07-07T07:53:27.174Z,102286.19
2018-07-07T07:55:59.748Z,102283.95
2018-07-07T07:58:28.181Z,102290.66
2018-07-07T08:00:56.676Z,102285.34
2018-07-07T08:04:01.746Z,102288.47
2018-07-07T08:06:30.201Z,102284.91
2018-07-07T08:08:58.929Z,102285.36
2018-07-07T08:11:27.382Z,102281.33
2018-07-07T08:13:56.037Z,102280.05
2018-07-07T08:16:24.575Z,102285.81
2018-07-07T08:18:53.163Z,102280.45
2018-07-07T08:21:21.700Z,102283.20
2018-07-07T08:23:50.183Z,102286.34
2018-07-07T08:26:18.673Z,102290.81
2018-07-07T08:28:47.157Z,102293.51
2018-07-07T08:31:15.588Z,102293.07
2018-07-07T08:33:44.209Z,102286.81
2018-07-07T08:36:12.828Z,102289.95
2018-07-07T08:38:41.382Z,102292.64
2018-07-07T08:41:13.385Z,102294.87
2018-07-07T08:43:42.763Z,102294.44
2018-07-07T08:46:12.001Z,102293.54
2018-07-07T08:48:40.584Z,102293.99
2018-07-07T08:51:09.133Z,102292.65
2018-07-07T08:53:37.599Z,102298.45
2018-07-07T08:56:06.127Z,102295.36
2018-07-07T08:58:34.682Z,102294.05
2018-07-07T09:01:06.737Z,102297.60
2018-07-07T09:03:35.215Z,102292.69
2018-07-07T09:06:03.672Z,102292.23
2018-07-07T09:08:32.178Z,102285.52
2018-07-07T09:11:00.644Z,102294.46
2018-07-07T09:13:29.226Z,102291.31
2018-07-07T09:15:57.661Z,102293.09
2018-07-07T09:18:26.089Z,102289.48
2018-07-07T09:20:54.613Z,102289.90
2018-07-07T09:23:23.168Z,102289.43
2018-07-07T09:25:51.668Z,102278.70
2018-07-07T09:28:20.245Z,102282.25
2018-07-07T09:30:48.697Z,102275.91
2018-07-07T09:33:17.205Z,102272.31
2018-07-07T09:35:45.721Z,102273.59
2018-07-07T09:38:14.264Z,102277.15
2018-07-07T09:40:42.785Z,102279.77
2018-07-07T09:43:11.314Z,102277.50
2018-07-07T09:45:39.792Z,102275.27
2018-07-07T09:48:08.293Z,102280.13
2018-07-07T09:50:36.765Z,102270.75
2018-07-07T09:53:05.585Z,102280.59
2018-07-07T09:55:34.145Z,102276.56
2018-07-07T09:58:02.777Z,102276.05
2018-07-07T10:00:36.743Z,102277.78
2018-07-07T10:03:05.204Z,102276.83
2018-07-07T10:05:33.813Z,102276.75
2018-07-07T10:08:02.369Z,102278.40
2018-07-07T10:10:30.874Z,102276.91
2018-07-07T10:12:59.346Z,102273.71
2018-07-07T10:15:27.815Z,102272.32
2018-07-07T10:17:56.325Z,102273.52
2018-07-07T10:20:24.812Z,102271.72
2018-07-07T10:22:53.698Z,102272.05
2018-07-07T10:25:22.132Z,102275.51
2018-07-07T10:27:50.666Z,102267.69
2018-07-07T10:30:19.173Z,102268.52
2018-07-07T10:32:47.812Z,102261.79
2018-07-07T10:35:16.437Z,102263.06
2018-07-07T10:37:44.892Z,102270.06
2018-07-07T10:40:13.361Z,102266.74
2018-07-07T10:42:42.041Z,102267.86
2018-07-07T10:45:10.505Z,102271.84
2018-07-07T10:47:39.010Z,102265.34
2018-07-07T10:50:07.529Z,102260.01
2018-07-07T10:52:36.136Z,102268.38
2018-07-07T10:55:04.673Z,102272.22
2018-07-07T10:57:33.150Z,102266.04
2018-07-07T11:00:01.726Z,102269.86
2018-07-07T11:02:30.192Z,102264.98
2018-07-07T11:04:58.705Z,102263.52
2018-07-07T11:07:27.153Z,102256.94
2018-07-07T11:09:55.740Z,102259.98
2018-07-07T11:12:24.252Z,102258.05
2018-07-07T11:14:52.848Z,102255.06
2018-07-07T11:17:21.417Z,102261.52
2018-07-07T11:19:50.224Z,102250.90
2018-07-07T11:22:18.680Z,102247.52
2018-07-07T11:24:47.150Z,102246.31
2018-07-07T11:27:15.795Z,102245.55
2018-07-07T11:29:44.374Z,102242.94
2018-07-07T11:32:12.950Z,102234.89
2018-07-07T11:34:41.485Z,102243.00
2018-07-07T11:37:09.984Z,102244.42
2018-07-07T11:39:38.594Z,102238.63
2018-07-07T11:42:07.180Z,102235.50
2018-07-07T11:44:35.726Z,102239.79
2018-07-07T11:47:04.241Z,102239.02
2018-07-07T11:49:32.774Z,102237.09
2018-07-07T11:52:01.455Z,102236.57
2018-07-07T11:54:29.932Z,102239.20
2018-07-07T11:56:58.435Z,102241.09
2018-07-07T11:59:27.106Z,102230.89
2018-07-07T12:01:55.591Z,102231.69
2018-07-07T12:04:24.226Z,102229.05
2018-07-07T12:06:52.871Z,102236.18
2018-07-07T12:09:21.331Z,102225.47
2018-07-07T12:11:49.847Z,102225.88
2018-07-07T12:14:18.935Z,102227.66
2018-07-07T12:16:47.508Z,102230.05
2018-07-07T12:19:15.990Z,102223.52
2018-07-07T12:21:44.476Z,102229.50
2018-07-07T12:24:17.098Z,102227.30
2018-07-07T12:26:45.658Z,102222.79
2018-07-07T12:29:14.210Z,102224.58
2018-07-07T12:32:22.342Z,102222.27
2018-07-07T12:34:50.933Z,102224.44
2018-07-07T12:37:19.405Z,102217.63
2018-07-07T12:39:47.861Z,102222.19
2018-07-07T12:42:16.355Z,102221.56
2018-07-07T12:44:45.182Z,102220.63
2018-07-07T12:47:13.729Z,102208.57
2018-07-07T12:49:42.296Z,102210.91
2018-07-07T12:52:10.775Z,102205.90
2018-07-07T12:54:39.331Z,102210.82
2018-07-07T12:57:08.209Z,102204.70
2018-07-07T12:59:36.745Z,102210.98
2018-07-07T13:02:05.312Z,102201.36
2018-07-07T13:04:33.788Z,102201.02
2018-07-07T13:07:02.404Z,102197.21
2018-07-07T13:09:30.876Z,102203.06
2018-07-07T13:11:59.553Z,102202.53
2018-07-07T13:14:27.985Z,102201.15
2018-07-07T13:16:56.609Z,102210.48
2018-07-07T13:19:25.088Z,102207.62
2018-07-07T13:21:53.593Z,102201.56
2018-07-07T13:24:22.088Z,102208.67
2018-07-07T13:26:50.529Z,102202.67
2018-07-07T13:29:18.982Z,102199.96
2018-07-07T13:31:47.420Z,102203.98
2018-07-07T13:34:15.880Z,102196.05
2018-07-07T13:36:44.449Z,102187.66
2018-07-07T13:39:13.238Z,102198.85
2018-07-07T13:41:41.744Z,102188.82
2018-07-07T13:44:11.026Z,102188.42
2018-07-07T13:46:50.272Z,102192.30
2018-07-07T13:49:18.841Z,102199.43
2018-07-07T13:51:47.316Z,102202.23
2018-07-07T13:54:15.881Z,102195.92
2018-07-07T13:56:44.361Z,102200.21
2018-07-07T13:59:12.920Z,102199.94
2018-07-07T14:01:41.483Z,102203.67
2018-07-07T14:04:10.082Z,102196.66
2018-07-07T14:06:38.673Z,102194.69
2018-07-07T14:09:07.977Z,102187.52
2018-07-07T14:11:36.451Z,102189.44
2018-07-07T14:14:05.071Z,102190.26
2018-07-07T14:16:33.589Z,102194.75
2018-07-07T14:19:02.000Z,102189.95
2018-07-07T14:21:30.440Z,102190.14
2018-07-07T14:23:58.934Z,102189.45
2018-07-07T14:26:27.584Z,102182.36
2018-07-07T14:28:56.052Z,102186.98
2018-07-07T14:31:24.641Z,102187.36
2018-07-07T14:33:53.153Z,102181.86
2018-07-07T14:36:21.807Z,102185.95
2018-07-07T14:38:50.314Z,102189.84
2018-07-07T14:41:20.262Z,102179.58
2018-07-07T14:43:57.856Z,102170.93
2018-07-07T14:46:27.025Z,102174.62
2018-07-07T14:48:55.735Z,102170.05
2018-07-07T14:51:24.320Z,102162.16
2018-07-07T14:53:52.958Z,102164.33
2018-07-07T14:56:22.589Z,102159.20
2018-07-07T14:58:51.357Z,102165.96
2018-07-07T15:01:20.146Z,102163.95
2018-07-07T15:03:48.712Z,102167.47
2018-07-07T15:06:17.353Z,102188.14
2018-07-07T15:08:45.937Z,102174.25
2018-07-07T15:11:14.667Z,102173.53
2018-07-07T15:13:43.180Z,102176.23
2018-07-07T15:16:11.744Z,102180.73
2018-07-07T15:18:40.210Z,102181.17
2018-07-07T15:21:16.585Z,102174.17
2018-07-07T15:23:45.070Z,102177.23
2018-07-07T15:26:13.516Z,102178.01
2018-07-07T15:28:42.013Z,102173.94
2018-07-07T15:31:10.550Z,102174.98
2018-07-07T15:33:39.149Z,102176.48
2018-07-07T15:36:07.716Z,102173.46
2018-07-07T15:38:36.273Z,102168.39
2018-07-07T15:41:04.885Z,102171.97
2018-07-07T15:43:33.391Z,102164.54
2018-07-07T15:46:01.990Z,102159.89
2018-07-07T15:48:30.493Z,102167.90
2018-07-07T15:50:59.072Z,102163.48
2018-07-07T15:53:27.544Z,102166.88
2018-07-07T15:55:56.056Z,102170.13
2018-07-07T15:58:24.631Z,102169.78
2018-07-07T16:00:53.140Z,102158.09
2018-07-07T16:03:21.676Z,102165.56
2018-07-07T16:05:50.411Z,102167.95
2018-07-07T16:08:18.958Z,102168.05
2018-07-07T16:10:47.500Z,102168.80
2018-07-07T16:13:16.095Z,102160.40
2018-07-07T16:15:44.718Z,102164.14
2018-07-07T16:18:13.296Z,102157.07
2018-07-07T16:20:41.819Z,102160.44
2018-07-07T16:23:10.370Z,102163.83
2018-07-07T16:25:38.822Z,102162.42
2018-07-07T16:28:07.481Z,102165.53
2018-07-07T16:30:36.308Z,102158.75
2018-07-07T16:33:04.940Z,102155.09
2018-07-07T16:35:33.476Z,102159.06
2018-07-07T16:38:02.013Z,102150.16
2018-07-07T16:40:30.549Z,102151.52
2018-07-07T16:43:00.349Z,102145.86
2018-07-07T16:45:28.953Z,102156.47
2018-07-07T16:47:57.436Z,102150.89
2018-07-07T16:50:31.965Z,102149.75
2018-07-07T16:53:00.555Z,102145.44
2018-07-07T16:55:29.029Z,102143.06
2018-07-07T16:57:57.630Z,102147.98
2018-07-07T17:00:26.217Z,102151.06
2018-07-07T17:02:55.205Z,102139.69
2018-07-07T17:05:23.794Z,102146.56
2018-07-07T17:07:52.470Z,102148.55
2018-07-07T17:10:21.120Z,102146.73
2018-07-07T17:12:49.849Z,102149.63
2018-07-07T17:15:18.431Z,102137.35
2018-07-07T17:17:47.541Z,102137.55
2018-07-07T17:20:15.999Z,102142.44
2018-07-07T17:22:45.726Z,102151.02
2018-07-07T17:25:14.268Z,102151.86
2018-07-07T17:27:43.408Z,102153.05
2018-07-07T17:30:12.219Z,102157.23
2018-07-07T17:32:40.916Z,102155.95
2018-07-07T17:35:09.554Z,102156.60
2018-07-07T17:37:38.097Z,102159.67
2018-07-07T17:40:06.684Z,102164.42
2018-07-07T17:42:35.375Z,102161.03
2018-07-07T17:45:03.875Z,102162.06
2018-07-07T17:47:32.664Z,102164.39
2018-07-07T17:50:03.129Z,102170.38
2018-07-07T17:52:33.592Z,102169.62
2018-07-07T17:55:03.302Z,102168.86
2018-07-07T17:57:31.834Z,102169.95
2018-07-07T18:00:00.506Z,102171.00
2018-07-07T18:02:29.088Z,102168.48
2018-07-07T18:04:57.674Z,102174.90
2018-07-07T18:07:26.254Z,102176.80
2018-07-07T18:09:54.805Z,102171.94
2018-07-07T18:12:23.256Z,102175.59
2018-07-07T18:14:51.751Z,102171.69
2018-07-07T18:17:20.239Z,102177.18
2018-07-07T18:19:48.840Z,102173.22
2018-07-07T18:22:17.278Z,102173.73
2018-07-07T18:24:45.708Z,102176.98
2018-07-07T18:27:14.304Z,102167.62
2018-07-07T18:29:42.965Z,102173.53
2018-07-07T18:32:11.549Z,102179.88
2018-07-07T18:34:40.125Z,102178.63
2018-07-07T18:37:08.580Z,102178.27
2018-07-07T18:39:37.096Z,102180.17
2018-07-07T18:42:05.692Z,102180.25
2018-07-07T18:44:34.117Z,102186.55
2018-07-07T18:47:02.650Z,102188.42
2018-07-07T18:49:55.693Z,102189.83
2018-07-07T18:52:24.248Z,102190.79
2018-07-07T18:54:52.802Z,102188.61
2018-07-07T18:57:21.316Z,102190.94
2018-07-07T18:59:50.045Z,102188.77
2018-07-07T19:02:18.597Z,102187.44
2018-07-07T19:04:47.051Z,102183.02
2018-07-07T19:07:15.685Z,102181.71
2018-07-07T19:09:44.172Z,102184.03
2018-07-07T19:12:12.624Z,102183.17
2018-07-07T19:14:41.132Z,102185.03
2018-07-07T19:17:09.664Z,102195.36
2018-07-07T19:19:38.229Z,102194.98
2018-07-07T19:22:12.075Z,102198.58
2018-07-07T19:24:45.832Z,102197.72
2018-07-07T19:27:14.316Z,102197.28
2018-07-07T19:29:42.798Z,102198.23
2018-07-07T19:32:16.518Z,102206.33
2018-07-07T19:34:50.362Z,102202.78
2018-07-07T19:37:20.600Z,102204.15
2018-07-07T19:39:49.120Z,102205.06
2018-07-07T19:42:17.865Z,102205.98
2018-07-07T19:44:46.481Z,102201.53
2018-07-07T19:47:15.034Z,102207.77
2018-07-07T19:49:43.659Z,102208.64
2018-07-07T19:52:12.233Z,102210.45
2018-07-07T19:54:40.669Z,102213.58
2018-07-07T19:57:09.208Z,102215.38
2018-07-07T19:59:37.874Z,102213.14
2018-07-07T20:02:06.452Z,102214.93
2018-07-07T20:04:35.034Z,102220.73
2018-07-07T20:07:03.550Z,102217.16
2018-07-07T20:09:32.097Z,102215.80
2018-07-07T20:12:00.809Z,102219.37
2018-07-07T20:14:29.389Z,102227.35
2018-07-07T20:17:08.228Z,102226.00
2018-07-07T20:19:53.410Z,102221.95
2018-07-07T20:22:21.966Z,102227.27
2018-07-07T20:24:50.552Z,102223.61
2018-07-07T20:27:24.430Z,102223.59
2018-07-07T20:29:53.050Z,102221.33
2018-07-07T20:32:26.923Z,102237.78
2018-07-07T20:34:55.460Z,102233.72
2018-07-07T20:37:24.096Z,102234.09
2018-07-07T20:39:52.673Z,102232.72
2018-07-07T20:42:21.277Z,102230.45
2018-07-07T20:44:49.902Z,102237.06
2018-07-07T20:47:18.563Z,102236.13
2018-07-07T20:49:47.125Z,102237.42
2018-07-07T20:52:15.613Z,102241.82
2018-07-07T20:54:44.091Z,102241.30
2018-07-07T20:57:12.618Z,102241.69
2018-07-07T20:59:41.057Z,102242.92
2018-07-07T21:02:09.665Z,102243.77
2018-07-07T21:04:38.125Z,102242.19
2018-07-07T21:07:06.762Z,102247.84
2018-07-07T21:09:35.243Z,102241.16
2018-07-07T21:12:03.765Z,102243.78
2018-07-07T21:14:32.387Z,102244.97
2018-07-07T21:17:00.934Z,102244.88
2018-07-07T21:19:29.380Z,102247.02
2018-07-07T21:21:57.908Z,102250.00
2018-07-07T21:24:26.469Z,102245.88
2018-07-07T21:26:55.001Z,102247.55
2018-07-07T21:29:23.643Z,102249.69
2018-07-07T21:31:52.196Z,102251.81
2018-07-07T21:34:20.751Z,102245.12
2018-07-07T21:36:49.220Z,102252.27
2018-07-07T21:39:17.773Z,102256.73
2018-07-07T21:41:46.324Z,102249.98
2018-07-07T21:44:14.783Z,102254.81
2018-07-07T21:46:43.370Z,102253.89
2018-07-07T21:49:11.941Z,102258.77
2018-07-07T21:51:40.519Z,102253.39
2018-07-07T21:54:09.196Z,102260.02
2018-07-07T21:56:37.645Z,102265.69
2018-07-07T21:59:11.571Z,102260.55
2018-07-07T22:05:07.044Z,102268.59
2018-07-07T22:07:39.956Z,102278.28
2018-07-07T22:10:08.732Z,102270.98
2018-07-07T22:12:37.344Z,102268.70
2018-07-07T22:15:05.919Z,102270.48
2018-07-07T22:17:34.457Z,102281.58
2018-07-07T22:20:02.956Z,102283.25
2018-07-07T22:22:31.520Z,102278.36
2018-07-07T22:25:00.084Z,102276.66
2018-07-07T22:27:28.601Z,102278.33
2018-07-07T22:29:57.227Z,102283.09
2018-07-07T22:32:25.791Z,102286.97
2018-07-07T22:34:54.334Z,102287.29
2018-07-07T22:37:22.938Z,102281.02
2018-07-07T22:39:51.360Z,102275.72
2018-07-07T22:42:20.092Z,102287.29
2018-07-07T22:44:49.509Z,102280.15
2018-07-07T22:47:18.079Z,102286.30
2018-07-07T22:49:46.584Z,102283.56
2018-07-07T22:52:15.156Z,102283.41
2018-07-07T22:54:43.780Z,102282.89
2018-07-07T22:57:12.251Z,102276.61
2018-07-07T22:59:40.797Z,102280.95
2018-07-07T23:02:09.286Z,102275.97
2018-07-07T23:04:37.736Z,102281.54
2018-07-07T23:07:06.482Z,102281.97
2018-07-07T23:09:35.025Z,102278.91
2018-07-07T23:12:03.501Z,102281.50
2018-07-07T23:14:32.006Z,102280.75
2018-07-07T23:17:01.810Z,102281.52
2018-07-07T23:19:30.263Z,102277.37
2018-07-07T23:21:58.868Z,102275.08
2018-07-07T23:24:27.325Z,102279.11
2018-07-07T23:26:55.886Z,102278.17
2018-07-07T23:29:24.434Z,102277.17
2018-07-07T23:31:52.895Z,102283.31
2018-07-07T23:34:21.365Z,102278.28
2018-07-07T23:36:49.797Z,102276.45
2018-07-07T23:39:18.296Z,102275.62
2018-07-07T23:41:46.861Z,102272.86
2018-07-07T23:44:15.327Z,102276.70
2018-07-07T23:46:43.860Z,102278.31
2018-07-07T23:49:12.478Z,102281.59
2018-07-07T23:51:41.207Z,102283.05
2018-07-07T23:54:11.349Z,102281.44
2018-07-07T23:56:40.609Z,102281.95
2018-07-07T23:59:09.178Z,102286.91
